Time;durP1;ratioP1;P1;durP2;ratioP2;P2;SDS_P1;SDS_P2;PMS_P1;PMS_P2;Temp;Humidity;BMP_temperature;BMP_pressure;BME280_temperature;BME280_humidity;BME280_pressure;Samples;Min_cycle;Max_cycle;Signal;HPM_P1;HPM_P2
2021/07/01 03:59:19;;;;;;;1.42;0.30;;;;;;;24.81;38.92;100024.63;5322347;26;20153;-83
2021/07/01 04:01:46;;;;;;;2.35;0.32;;;;;;;25.43;38.11;100019.25;5298877;27;20510;-84
2021/07/01 04:04:35;;;;;;;6.60;1.35;;;;;;;25.87;37.76;100016.94;5315898;27;20794;-83
2021/07/01 04:07:04;;;;;;;5.82;1.10;;;;;;;26.61;35.49;100028.31;5301072;27;20057;-84
2021/07/01 04:09:31;;;;;;;3.67;0.60;;;;;;;27.12;34.75;100017.91;5302823;27;20089;-85
2021/07/01 04:11:58;;;;;;;2.12;0.25;;;;;;;26.55;35.78;100023.41;5301953;27;20192;-88
2021/07/01 04:14:24;;;;;;;2.95;0.50;;;;;;;26.22;36.90;100022.31;5319353;27;20458;-84
2021/07/01 04:16:51;;;;;;;2.05;0.60;;;;;;;26.12;37.16;100024.88;5298675;27;20110;-86
2021/07/01 04:42:02;;;;;;;5.28;0.62;;;;;;;24.32;40.62;100030.69;5342829;26;20056;-84
2021/07/01 04:44:29;;;;;;;2.45;1.00;;;;;;;24.76;40.65;100038.38;5322314;26;20064;-84
2021/07/01 04:46:56;;;;;;;4.05;1.20;;;;;;;25.68;38.02;100036.25;5341629;26;20103;-85
2021/07/01 04:49:23;;;;;;;1.45;0.40;;;;;;;26.70;35.83;100033.81;5341701;26;20378;-85
2021/07/01 04:51:50;;;;;;;0.30;0.10;;;;;;;27.39;34.58;100041.81;5322249;26;20056;-86
2021/07/01 04:54:17;;;;;;;0.20;0.17;;;;;;;27.87;33.34;100034.34;5345282;26;20056;-85
2021/07/01 04:56:44;;;;;;;0.68;0.20;;;;;;;28.56;32.08;100032.06;5330844;26;20088;-88
2021/07/01 04:59:15;;;;;;;1.27;0.20;;;;;;;28.97;31.30;100035.66;5346790;26;20021;-88
2021/07/01 13:51:42;;;;;;;1.17;0.20;;;;;;;32.32;23.65;99970.09;5326620;26;20072;-83
2021/07/01 13:54:13;;;;;;;0.82;0.60;;;;;;;33.10;23.71;99961.06;5342737;26;20089;-87
2021/07/01 13:56:41;;;;;;;0.75;0.43;;;;;;;31.97;23.70;99972.91;5328311;26;20066;-85
2021/07/01 13:59:08;;;;;;;0.85;0.40;;;;;;;31.18;25.17;99969.03;5345711;26;20060;-85
2021/07/01 14:01:35;;;;;;;2.60;0.40;;;;;;;31.18;25.25;99969.03;5326411;26;20029;-85
2021/07/01 14:04:02;;;;;;;6.20;0.65;;;;;;;30.81;25.22;99971.78;5340939;26;20074;-86
2021/07/01 14:06:33;;;;;;;1.52;0.25;;;;;;;31.14;25.12;99970.31;5341613;26;20151;-84
2021/07/01 14:09:19;;;;;;;34.10;4.25;;;;;;;30.65;25.82;99969.66;5321539;26;20062;-84
2021/07/01 14:11:48;;;;;;;3.00;0.25;;;;;;;31.25;25.36;99966.56;5322261;26;20119;-85
2021/07/01 14:14:15;;;;;;;3.30;0.50;;;;;;;30.97;25.31;99971.97;5342168;26;20073;-86
2021/07/01 14:16:42;;;;;;;1.98;0.28;;;;;;;31.16;26.12;99969.16;5341123;26;20067;-86
2021/07/01 14:19:12;;;;;;;0.40;0.20;;;;;;;31.01;25.69;99965.25;5340621;26;20369;-85
2021/07/01 14:21:51;;;;;;;2.62;0.47;;;;;;;30.38;26.81;99965.03;5341829;26;20067;-83
2021/07/01 14:24:21;;;;;;;3.33;0.32;;;;;;;29.80;26.92;99969.53;5342376;26;20072;-84
2021/07/01 14:26:52;;;;;;;0.82;0.30;;;;;;;29.65;28.21;99976.38;5341894;26;20127;-86
2021/07/01 14:29:22;;;;;;;1.67;0.37;;;;;;;29.58;27.65;99981.44;5342354;26;20021;-84
2021/07/01 14:31:49;;;;;;;2.25;0.20;;;;;;;29.90;27.65;99982.22;5321911;26;20116;-86
2021/07/01 14:34:32;;;;;;;6.00;0.50;;;;;;;29.99;27.09;99989.47;5322149;26;20059;-86
2021/07/01 14:37:00;;;;;;;1.65;0.10;;;;;;;29.07;28.08;99992.47;5342206;26;20408;-86
2021/07/01 14:39:26;;;;;;;1.45;0.20;;;;;;;28.96;27.94;99991.53;5341848;26;20059;-86
2021/07/01 14:42:09;;;;;;;2.60;0.15;;;;;;;29.35;28.55;99994.37;5340529;26;20108;-85
2021/07/01 14:44:36;;;;;;;1.48;0.22;;;;;;;29.53;28.23;99999.97;5321829;26;20353;-86
2021/07/01 14:47:14;;;;;;;5.60;0.32;;;;;;;29.07;28.73;100016.81;5342871;26;20113;-84
2021/07/01 14:49:42;;;;;;;14.45;0.65;;;;;;;28.75;28.29;100020.47;5322248;26;20373;-86
2021/07/01 14:52:22;;;;;;;1.35;0.10;;;;;;;29.12;28.74;100018.12;5341699;26;20036;-87
2021/07/01 14:55:31;;;;;;;1.67;0.10;;;;;;;28.49;29.54;100018.19;5309028;27;20064;-86
2021/07/01 14:58:05;;;;;;;1.00;0.10;;;;;;;28.33;29.46;100019.66;5317102;27;20114;-87
2021/07/01 15:00:32;;;;;;;1.23;0.20;;;;;;;28.47;29.64;100025.59;5298474;27;20061;-85
2021/07/01 15:03:08;;;;;;;0.68;0.15;;;;;;;28.39;29.69;100033.47;5317519;27;20152;-85
2021/07/01 15:05:35;;;;;;;0.90;0.10;;;;;;;28.45;29.28;100032.97;5298598;27;20083;-85
2021/07/01 15:08:06;;;;;;;1.48;0.20;;;;;;;28.29;29.43;100036.09;5316809;27;20142;-84
2021/07/01 15:10:35;;;;;;;2.05;0.30;;;;;;;28.82;29.39;100040.56;5298544;27;20069;-85
2021/07/01 15:50:41;;;;;;;3.15;0.90;;;;;;;28.10;35.58;100059.41;5343244;26;20064;-85
2021/07/01 15:53:28;;;;;;;3.33;0.62;;;;;;;28.10;35.42;100071.06;5322989;26;20490;-85
2021/07/01 15:55:58;;;;;;;2.78;1.00;;;;;;;28.21;35.56;100068.31;5340414;26;20043;-86
2021/07/01 15:58:25;;;;;;;0.60;0.30;;;;;;;28.37;34.80;100075.13;5341190;26;20076;-85
2021/07/01 16:00:54;;;;;;;0.93;0.17;;;;;;;28.31;34.66;100074.66;5341793;26;20025;-86
2021/07/01 16:03:22;;;;;;;;;;;;;;;28.18;34.43;100076.69;5342430;26;20499;-86
2021/07/01 16:46:58;;;;;;;1.48;0.40;;;;;;;27.24;36.89;100094.31;5335059;26;20052;-87
2021/07/01 16:49:29;;;;;;;1.33;0.32;;;;;;;27.39;36.99;100094.91;5342167;26;20359;-85
2021/07/01 16:52:00;;;;;;;3.35;0.70;;;;;;;27.16;37.04;100080.56;5342779;26;20093;-85
2021/07/01 16:54:28;;;;;;;8.25;0.62;;;;;;;27.32;36.73;100091.81;5322618;26;20112;-87
2021/07/01 16:57:00;;;;;;;1.42;0.40;;;;;;;27.22;37.29;100093.56;5343125;26;20044;-86
2021/07/01 16:59:29;;;;;;;5.70;0.50;;;;;;;27.34;36.13;100097.97;5342961;26;20110;-84
2021/07/01 17:01:59;;;;;;;1.70;0.40;;;;;;;27.20;38.19;100106.28;5343200;26;20056;-84
2021/07/01 17:04:39;;;;;;;3.95;0.60;;;;;;;27.26;40.29;100110.34;5343010;26;20049;-84
2021/07/01 17:07:07;;;;;;;6.45;0.40;;;;;;;27.09;40.22;100108.94;5343661;26;20094;-87
2021/07/01 17:09:36;;;;;;;4.53;0.28;;;;;;;26.64;42.02;100116.97;5343899;26;20060;-83
2021/07/01 17:12:03;;;;;;;8.82;0.68;;;;;;;25.98;44.73;100122.81;5343490;26;20126;-87
2021/07/01 17:14:57;;;;;;;3.60;0.50;;;;;;;26.03;46.57;100120.66;5343386;26;20635;-87
2021/07/01 17:17:27;;;;;;;2.83;0.60;;;;;;;26.17;45.38;100116.03;5343889;26;20124;-86
2021/07/01 17:20:11;;;;;;;4.93;0.80;;;;;;;25.88;44.55;100116.38;5343757;26;20057;-86
2021/07/01 17:22:49;;;;;;;6.05;2.00;;;;;;;26.22;45.42;100119.25;5323861;26;20119;-86
2021/07/01 17:25:17;;;;;;;3.80;1.40;;;;;;;25.90;47.81;100122.53;5343479;26;20067;-85
2021/07/01 17:27:45;;;;;;;3.78;1.10;;;;;;;25.50;48.86;100122.72;5344134;26;20049;-84
2021/07/01 17:30:12;;;;;;;7.00;1.17;;;;;;;26.00;47.35;100120.88;5343751;26;20057;-86
2021/07/01 17:32:53;;;;;;;0.90;0.47;;;;;;;25.72;48.84;100126.53;5323762;26;20038;-87
2021/07/01 17:35:21;;;;;;;3.30;0.50;;;;;;;25.37;51.38;100127.25;5343624;26;20105;-85
2021/07/01 17:37:48;;;;;;;0.50;0.40;;;;;;;24.67;50.96;100120.44;5343188;26;20052;-86
2021/07/01 17:40:16;;;;;;;1.45;0.22;;;;;;;23.88;53.59;100123.09;5342960;26;20075;-87
2021/07/01 17:42:44;;;;;;;0.40;0.30;;;;;;;24.38;52.64;100126.94;5341335;26;20064;-85
2021/07/01 17:45:11;;;;;;;2.80;0.80;;;;;;;24.84;49.23;100115.75;5342749;26;20108;-86
2021/07/01 17:47:39;;;;;;;1.35;0.32;;;;;;;25.05;49.08;100121.44;5342585;26;20104;-87
2021/07/01 17:50:07;;;;;;;0.85;0.40;;;;;;;25.24;47.21;100121.91;5340813;26;20061;-86
2021/07/01 17:52:34;;;;;;;2.12;0.85;;;;;;;24.92;49.38;100113.41;5322531;26;20751;-85
2021/07/01 17:55:02;;;;;;;1.15;0.20;;;;;;;24.64;47.71;100123.34;5322583;26;20048;-85
2021/07/01 17:57:29;;;;;;;2.78;0.30;;;;;;;25.26;47.29;100129.84;5343074;26;20061;-86
2021/07/01 17:59:55;;;;;;;0.20;0.20;;;;;;;24.50;47.98;100138.69;5342256;26;20064;-86
2021/07/01 18:02:22;;;;;;;1.98;0.30;;;;;;;24.79;46.75;100129.50;5342649;26;20039;-83
2021/07/01 18:05:13;;;;;;;2.25;0.75;;;;;;;24.65;50.68;100141.22;5322382;26;20083;-84
2021/07/01 18:07:40;;;;;;;1.25;0.45;;;;;;;24.46;51.22;100143.41;5342084;26;20067;-84
2021/07/01 18:10:07;;;;;;;3.45;0.40;;;;;;;23.94;52.08;100138.78;5342838;26;20072;-86
2021/07/01 18:12:34;;;;;;;0.20;0.10;;;;;;;23.27;53.90;100144.81;5342554;26;20053;-85
2021/07/01 18:15:02;;;;;;;1.48;0.30;;;;;;;23.72;53.27;100148.25;5342585;26;20100;-86
2021/07/01 18:17:30;;;;;;;1.67;0.30;;;;;;;23.83;51.72;100133.28;5342416;26;20056;-84
2021/07/01 18:19:57;;;;;;;0.55;0.30;;;;;;;23.82;53.55;100136.91;5340933;26;20084;-85
2021/07/01 18:22:49;;;;;;;2.15;0.50;;;;;;;24.17;51.61;100142.66;5322479;26;20060;-86
2021/07/01 18:25:17;;;;;;;0.30;0.30;;;;;;;24.25;50.84;100146.53;5340920;26;20103;-85
2021/07/01 18:27:44;;;;;;;0.93;0.30;;;;;;;24.24;51.17;100152.03;5342671;26;20056;-84
2021/07/01 18:30:11;;;;;;;0.57;0.40;;;;;;;24.40;49.46;100157.22;5342242;26;20163;-84
2021/07/01 18:32:38;;;;;;;1.55;0.20;;;;;;;24.40;49.38;100157.22;5342338;26;20070;-85
2021/07/01 18:35:07;;;;;;;0.32;0.20;;;;;;;24.61;47.80;100166.53;5322403;26;20052;-85
2021/07/01 18:37:34;;;;;;;0.68;0.20;;;;;;;24.76;47.25;100164.62;5322564;26;20055;-86
2021/07/01 18:40:03;;;;;;;1.55;0.20;;;;;;;24.35;48.01;100167.41;5342942;26;20079;-86
2021/07/01 18:42:33;;;;;;;2.28;0.57;;;;;;;24.58;48.40;100165.91;5342559;26;20153;-85
2021/07/01 18:45:01;;;;;;;;;;;;;;;24.86;47.61;100164.88;5323245;26;20084;-85
2021/07/01 18:47:29;;;;;;;0.60;0.20;;;;;;;24.87;47.29;100170.13;5341727;26;19966;-86
2021/07/01 18:49:57;;;;;;;0.30;0.20;;;;;;;24.95;45.73;100169.63;5342875;26;20403;-85
2021/07/01 18:52:24;;;;;;;3.20;0.40;;;;;;;25.04;46.57;100176.19;5341256;26;20128;-84
2021/07/01 18:54:51;;;;;;;0.20;0.20;;;;;;;24.92;47.12;100177.91;5343464;26;20159;-86
2021/07/01 18:57:19;;;;;;;2.75;0.20;;;;;;;24.80;47.65;100176.06;5323135;26;20074;-86
2021/07/01 18:59:46;;;;;;;2.37;0.30;;;;;;;24.79;47.25;100177.00;5342507;26;20516;-85
2021/07/01 19:02:16;;;;;;;0.20;0.20;;;;;;;24.86;47.17;100176.50;5342788;26;20060;-85
2021/07/01 19:04:43;;;;;;;0.35;0.30;;;;;;;24.74;47.58;100187.19;5323039;26;20051;-83
2021/07/01 19:07:16;;;;;;;1.02;0.52;;;;;;;24.67;47.98;100187.62;5343083;26;20045;-86
2021/07/01 19:09:42;;;;;;;2.33;0.30;;;;;;;24.80;46.90;100176.06;5343243;26;20457;-84
2021/07/01 19:12:09;;;;;;;0.82;0.30;;;;;;;24.77;47.03;100184.31;5323640;26;20078;-85
2021/07/01 19:14:36;;;;;;;2.87;0.45;;;;;;;24.92;46.41;100178.75;5323925;26;20074;-84
2021/07/01 19:17:53;;;;;;;2.83;0.32;;;;;;;24.96;46.95;100187.44;5344956;26;20085;-85
2021/07/01 19:20:22;;;;;;;1.17;0.30;;;;;;;24.97;47.21;100194.53;5327927;26;20646;-84
2021/07/01 19:22:49;;;;;;;1.67;0.32;;;;;;;24.96;46.03;100198.19;5346374;26;20801;-83
2021/07/01 19:25:27;;;;;;;1.95;0.20;;;;;;;24.85;46.75;100190.88;5328893;26;20083;-84
2021/07/01 19:28:14;;;;;;;0.68;0.30;;;;;;;24.88;46.58;100208.62;5330993;26;20070;-84
2021/07/01 19:30:41;;;;;;;0.40;0.20;;;;;;;24.86;46.52;100207.88;5347301;26;20064;-84
2021/07/01 19:33:08;;;;;;;0.30;0.30;;;;;;;24.92;46.44;100202.94;5347263;26;20117;-85
2021/07/01 19:35:35;;;;;;;1.90;0.30;;;;;;;24.88;46.51;100211.31;5346706;26;20059;-84
2021/07/01 19:38:04;;;;;;;1.17;0.37;;;;;;;24.74;47.27;100219.44;5326719;26;20044;-86
2021/07/01 19:40:33;;;;;;;0.30;0.30;;;;;;;24.80;46.84;100213.66;5328810;26;20113;-85
2021/07/01 19:43:02;;;;;;;2.17;0.40;;;;;;;24.80;46.86;100219.03;5347807;26;20052;-84
2021/07/01 19:45:29;;;;;;;0.88;0.20;;;;;;;24.72;46.28;100221.38;5348191;26;20133;-85
2021/07/01 19:47:57;;;;;;;0.20;0.20;;;;;;;24.48;46.51;100225.59;5347173;26;20045;-85
2021/07/01 19:50:25;;;;;;;1.33;0.20;;;;;;;24.16;48.16;100233.06;5328707;26;20075;-83
2021/07/01 19:52:52;;;;;;;0.45;0.40;;;;;;;24.50;47.02;100238.06;5328095;26;20544;-84
2021/07/01 19:55:19;;;;;;;1.50;0.40;;;;;;;24.70;47.15;100238.44;5326798;26;20033;-83
2021/07/01 19:57:51;;;;;;;3.33;0.37;;;;;;;24.84;47.20;100242.03;5326540;26;20045;-84
2021/07/01 20:00:18;;;;;;;1.58;0.40;;;;;;;24.73;47.33;100236.53;5346259;26;20427;-85
2021/07/01 20:02:50;;;;;;;2.90;0.63;;;;;;;24.35;48.06;100248.81;5345606;26;20148;-85
2021/07/01 20:05:22;;;;;;;0.77;0.40;;;;;;;24.22;48.32;100251.44;5345150;26;20126;-86
2021/07/01 20:07:49;;;;;;;0.68;0.40;;;;;;;23.84;48.47;100240.50;5325498;26;20398;-85
2021/07/01 20:10:16;;;;;;;0.47;0.20;;;;;;;23.28;50.80;100244.84;5345681;26;20104;-85
2021/07/01 20:12:43;;;;;;;2.25;0.40;;;;;;;23.25;50.45;100242.34;5345325;26;20601;-83
2021/07/01 20:15:12;;;;;;;4.22;0.50;;;;;;;23.39;49.29;100246.87;5326622;26;20450;-85
2021/07/01 20:17:40;;;;;;;2.92;0.30;;;;;;;23.37;49.00;100240.75;5345378;26;20048;-85
2021/07/01 20:20:12;;;;;;;1.50;0.40;;;;;;;23.22;50.07;100242.56;5345336;26;20108;-85
2021/07/01 20:22:40;;;;;;;1.87;0.32;;;;;;;23.13;49.43;100233.25;5345287;26;20101;-86
2021/07/01 20:25:07;;;;;;;0.50;0.37;;;;;;;23.41;49.37;100243.13;5345313;26;20452;-85
2021/07/01 20:27:34;;;;;;;1.33;0.30;;;;;;;23.65;48.06;100250.59;5344918;26;20060;-85
2021/07/01 20:30:04;;;;;;;0.55;0.47;;;;;;;23.61;49.10;100249.09;5345529;26;20457;-85
2021/07/01 20:32:32;;;;;;;0.80;0.35;;;;;;;23.61;48.63;100244.59;5345420;26;20056;-85
2021/07/01 20:35:01;;;;;;;1.10;0.52;;;;;;;23.61;48.62;100246.41;5325874;26;20072;-85
2021/07/01 20:37:27;;;;;;;1.58;0.32;;;;;;;23.64;48.39;100254.25;5345638;26;20065;-85
2021/07/01 20:39:54;;;;;;;0.73;0.30;;;;;;;23.58;49.45;100244.78;5326097;26;20057;-85
2021/07/01 20:42:31;;;;;;;0.90;0.30;;;;;;;23.49;49.28;100250.72;5348666;26;20445;-85
2021/07/01 20:44:58;;;;;;;2.72;0.35;;;;;;;23.57;47.99;100253.78;5349461;26;20084;-84
2021/07/01 20:47:27;;;;;;;0.50;0.37;;;;;;;23.47;49.73;100248.13;5344580;26;20052;-84
2021/07/01 20:50:07;;;;;;;0.70;0.30;;;;;;;23.55;49.14;100251.19;5349396;26;20064;-85
2021/07/01 20:52:42;;;;;;;0.30;0.30;;;;;;;23.37;49.42;100252.31;5328822;26;20075;-85
2021/07/01 20:55:11;;;;;;;1.33;0.68;;;;;;;23.24;49.87;100262.94;5346688;26;20028;-85
2021/07/01 20:58:21;;;;;;;0.45;0.30;;;;;;;23.47;48.56;100266.03;5346624;26;20599;-83
2021/07/01 21:00:48;;;;;;;0.73;0.40;;;;;;;23.38;49.08;100259.41;5346605;26;20068;-84
2021/07/01 21:03:51;;;;;;;1.33;0.45;;;;;;;23.24;49.93;100259.41;5345811;26;20076;-83
2021/07/01 21:06:23;;;;;;;0.55;0.55;;;;;;;23.42;48.92;100266.31;5348761;26;20054;-83
2021/07/01 21:08:56;;;;;;;1.45;0.50;;;;;;;22.90;48.71;100272.94;5350598;26;20059;-85
2021/07/01 21:11:23;;;;;;;0.85;0.43;;;;;;;22.98;50.00;100266.31;5349212;26;20045;-84
2021/07/01 21:13:54;;;;;;;1.08;0.40;;;;;;;22.67;52.20;100260.91;5347365;26;20076;-84
2021/07/01 21:16:22;;;;;;;0.65;0.30;;;;;;;22.68;52.19;100264.47;5348375;26;20071;-84
2021/07/01 21:18:52;;;;;;;1.10;0.45;;;;;;;22.56;52.17;100270.50;5349665;26;20032;-85
2021/07/01 21:21:19;;;;;;;2.35;0.60;;;;;;;22.51;51.81;100272.59;5349353;26;20114;-84
2021/07/01 21:23:46;;;;;;;1.73;0.77;;;;;;;22.21;51.64;100276.06;5329726;26;20081;-85
2021/07/01 21:26:13;;;;;;;3.15;0.70;;;;;;;21.95;52.58;100275.66;5349943;26;20164;-84
2021/07/01 21:29:02;;;;;;;1.67;0.70;;;;;;;21.76;53.31;100283.81;5345620;26;20060;-84
2021/07/01 21:31:29;;;;;;;0.88;0.70;;;;;;;21.62;53.51;100288.16;5346004;26;20056;-83
2021/07/01 21:33:57;;;;;;;1.33;0.73;;;;;;;20.90;56.26;100291.87;5346668;26;20203;-83
2021/07/01 21:36:26;;;;;;;1.42;0.70;;;;;;;21.09;55.61;100295.38;5326176;26;20043;-84
2021/07/01 21:39:12;;;;;;;2.25;0.80;;;;;;;20.98;56.22;100295.91;5346140;26;20430;-84
2021/07/01 21:41:46;;;;;;;1.25;0.88;;;;;;;20.78;56.03;100290.69;5326896;26;20052;-85
2021/07/01 21:44:24;;;;;;;0.80;0.70;;;;;;;20.52;58.69;100306.19;5328312;26;20060;-84
2021/07/01 21:46:52;;;;;;;1.77;0.50;;;;;;;20.71;57.83;100305.31;5346675;26;20478;-84
2021/07/01 21:49:25;;;;;;;0.60;0.50;;;;;;;20.74;57.73;100311.34;5346732;26;20071;-84
2021/07/01 21:51:51;;;;;;;2.15;0.50;;;;;;;20.78;57.36;100312.06;5348474;26;20086;-85
2021/07/01 21:54:48;;;;;;;0.25;0.25;;;;;;;19.50;61.68;100303.72;5347449;26;20488;-84
2021/07/01 21:57:16;;;;;;;0.32;0.30;;;;;;;20.36;58.61;100315.84;5337432;26;20083;-84
2021/07/01 21:59:44;;;;;;;1.08;0.40;;;;;;;20.46;57.99;100313.59;5345714;26;20060;-83
2021/07/01 22:02:11;;;;;;;1.87;0.77;;;;;;;20.61;57.40;100318.22;5326340;26;20029;-82
2021/07/01 22:04:42;;;;;;;1.87;0.57;;;;;;;20.38;58.41;100325.50;5348043;26;20129;-85
2021/07/01 22:09:40;;;;;;;0.40;0.40;;;;;;;20.80;57.49;100299.50;5328581;27;20072;-86
2021/07/01 22:12:10;;;;;;;0.73;0.40;;;;;;;20.70;57.45;100300.88;5307287;27;20127;-84
2021/07/01 22:17:41;;;;;;;1.08;0.47;;;;;;;20.82;57.67;100306.50;5274437;27;20084;-84
2021/07/01 22:20:11;;;;;;;0.55;0.30;;;;;;;20.67;58.93;100306.38;5326855;27;20037;-83
2021/07/01 22:22:41;;;;;;;0.40;0.40;;;;;;;20.98;57.58;100308.41;5328324;27;20053;-84
2021/07/01 22:25:13;;;;;;;1.02;0.50;;;;;;;20.87;57.87;100309.78;5327043;27;20073;-85
2021/07/01 22:27:42;;;;;;;1.60;0.60;;;;;;;20.90;58.06;100313.25;5326417;27;20441;-86
2021/07/01 22:30:13;;;;;;;;;;;;;;;20.79;57.86;100311.09;5326678;27;20044;-85
2021/07/01 22:32:41;;;;;;;1.00;0.25;;;;;;;20.96;57.50;100320.94;5306960;27;19964;-83
2021/07/01 22:35:09;;;;;;;0.68;0.50;;;;;;;20.94;56.27;100309.47;5325676;27;20056;-86
2021/07/01 22:37:36;;;;;;;2.87;0.47;;;;;;;20.89;56.26;100306.19;5306691;27;20135;-83
2021/07/01 22:40:06;;;;;;;1.25;0.52;;;;;;;20.89;55.47;100312.38;5329724;27;20434;-86
2021/07/01 22:42:37;;;;;;;2.85;0.85;;;;;;;21.12;55.63;100313.03;5324535;27;20076;-85
2021/07/01 22:45:06;;;;;;;1.33;0.65;;;;;;;20.78;57.01;100304.91;5324636;27;20098;-85
2021/07/01 22:47:33;;;;;;;1.67;0.32;;;;;;;20.99;56.37;100312.78;5324536;27;20053;-85
2021/07/01 22:50:05;;;;;;;0.50;0.40;;;;;;;21.05;56.33;100304.47;5323763;27;20051;-84
2021/07/01 22:52:35;;;;;;;0.45;0.30;;;;;;;21.08;56.35;100299.81;5322906;27;20065;-86
2021/07/01 22:55:04;;;;;;;1.00;0.57;;;;;;;21.10;55.10;100307.78;5322873;27;20065;-85
2021/07/01 22:57:30;;;;;;;2.62;0.60;;;;;;;21.08;55.38;100304.31;5323656;27;20611;-86
2021/07/01 22:59:57;;;;;;;1.50;0.70;;;;;;;20.98;54.85;100311.06;5326807;27;20422;-84
